createdAt,value
2023-01-09T00:00:30.679Z,92.2
2023-01-09T00:01:46.970Z,92.3
2023-01-09T00:03:03.255Z,92.2
2023-01-09T00:04:19.559Z,92.1
2023-01-09T00:05:34.865Z,92.1
2023-01-09T00:06:51.140Z,92
2023-01-09T00:08:07.450Z,92.1
2023-01-09T00:09:23.745Z,91.9
2023-01-09T00:10:40.029Z,92
2023-01-09T00:11:56.342Z,92.1
2023-01-09T00:13:12.630Z,92.1
2023-01-09T00:14:28.921Z,92.2
2023-01-09T00:15:45.213Z,92.1
2023-01-09T00:17:01.500Z,92.1
2023-01-09T00:18:17.780Z,92.2
2023-01-09T00:19:34.089Z,92.1
2023-01-09T00:20:50.368Z,92.2
2023-01-09T00:22:05.700Z,92.1
2023-01-09T00:23:21.992Z,92
2023-01-09T00:24:38.276Z,91.9
2023-01-09T00:25:54.567Z,91.9
2023-01-09T00:27:10.880Z,91.9
2023-01-09T00:28:27.148Z,92
2023-01-09T00:29:43.438Z,92.1
2023-01-09T00:30:59.757Z,92.2
2023-01-09T00:32:16.039Z,92.1
2023-01-09T00:33:32.316Z,92.2
2023-01-09T00:34:48.617Z,92.3
2023-01-09T00:36:04.936Z,92.4
2023-01-09T00:37:21.204Z,92.3
2023-01-09T00:38:36.549Z,92.2
2023-01-09T00:39:52.809Z,92.2
2023-01-09T00:41:09.125Z,92.3
2023-01-09T00:42:25.418Z,92.1
2023-01-09T00:43:41.710Z,92
2023-01-09T00:44:58.007Z,92
2023-01-09T00:46:14.282Z,91.9
2023-01-09T00:47:30.590Z,91.9
2023-01-09T00:48:46.890Z,91.9
2023-01-09T00:50:03.181Z,91.7
2023-01-09T00:51:19.457Z,91.7
2023-01-09T00:52:35.770Z,91.6
2023-01-09T00:53:52.068Z,91.6
2023-01-09T00:55:07.368Z,91.5
2023-01-09T00:56:23.637Z,91.4
2023-01-09T00:57:39.941Z,91.3
2023-01-09T00:58:56.248Z,91.3
2023-01-09T01:00:12.526Z,91.2
2023-01-09T01:01:28.823Z,91.3
2023-01-09T01:02:44.133Z,91.2
2023-01-09T01:04:00.447Z,91.2
2023-01-09T01:05:16.719Z,91.2
2023-01-09T01:06:33.020Z,91.3
2023-01-09T01:07:49.328Z,91.3
2023-01-09T01:09:05.625Z,91.4
2023-01-09T01:10:21.913Z,91.5
2023-01-09T01:11:38.193Z,91.7
2023-01-09T01:12:54.477Z,91.6
2023-01-09T01:14:10.804Z,91.3
2023-01-09T01:15:27.096Z,91.3
2023-01-09T01:16:43.395Z,91.1
2023-01-09T01:17:59.684Z,90.8
2023-01-09T01:19:14.993Z,90.7
2023-01-09T01:20:31.258Z,90.6
2023-01-09T01:21:47.560Z,90.6
2023-01-09T01:23:03.868Z,90.5
2023-01-09T01:24:20.163Z,90.2
2023-01-09T01:25:36.431Z,90.2
2023-01-09T01:26:52.730Z,90
2023-01-09T01:28:09.032Z,89.9
2023-01-09T01:29:25.326Z,90
2023-01-09T01:30:41.610Z,89.9
2023-01-09T01:31:57.924Z,89.6
2023-01-09T01:33:14.201Z,89.5
2023-01-09T01:34:30.527Z,89.4
2023-01-09T01:35:45.805Z,89.4
2023-01-09T01:37:02.101Z,89.2
2023-01-09T01:38:18.402Z,89.1
2023-01-09T01:39:34.708Z,89.1
2023-01-09T01:40:50.980Z,88.9
2023-01-09T01:42:07.291Z,88.7
2023-01-09T01:43:23.580Z,88.7
2023-01-09T01:44:39.852Z,88.5
2023-01-09T01:45:56.168Z,88.4
2023-01-09T01:47:12.444Z,88
2023-01-09T01:48:28.754Z,87.8
2023-01-09T01:49:45.048Z,87.7
2023-01-09T01:51:01.331Z,87.6
2023-01-09T01:52:16.660Z,87.6
2023-01-09T01:53:32.961Z,87.4
2023-01-09T01:54:49.231Z,87.4
2023-01-09T01:56:05.520Z,87.4
2023-01-09T01:57:21.833Z,87.3
2023-01-09T01:58:38.124Z,87.2
2023-01-09T01:59:54.395Z,87.4
2023-01-09T02:01:10.689Z,87.3
2023-01-09T02:02:26.987Z,87.3
2023-01-09T02:03:43.280Z,87.3
2023-01-09T02:04:59.597Z,87.2
2023-01-09T02:06:15.865Z,87
2023-01-09T02:07:32.167Z,86.9
2023-01-09T02:08:47.490Z,86.7
2023-01-09T02:10:03.768Z,86.7
2023-01-09T02:11:20.074Z,86.8
2023-01-09T02:12:36.374Z,86.7
2023-01-09T02:13:52.675Z,86.6
2023-01-09T02:15:08.938Z,86.4
2023-01-09T02:16:25.239Z,86.5
2023-01-09T02:17:41.524Z,86.5
2023-01-09T02:18:57.843Z,86.5
2023-01-09T02:20:14.130Z,86.7
2023-01-09T02:21:30.428Z,86.8
2023-01-09T02:22:46.697Z,86.5
2023-01-09T02:24:03.022Z,86.5
2023-01-09T02:25:18.332Z,86.3
2023-01-09T02:26:34.619Z,86.1
2023-01-09T02:27:50.911Z,86.1
2023-01-09T02:29:07.199Z,86
2023-01-09T02:30:23.510Z,86
2023-01-09T02:31:39.798Z,85.9
2023-01-09T02:32:56.104Z,85.9
2023-01-09T02:34:12.380Z,85.8
2023-01-09T02:35:28.676Z,85.7
2023-01-09T02:36:44.968Z,85.6
2023-01-09T02:38:01.271Z,85.7
2023-01-09T02:39:17.570Z,85.7
2023-01-09T02:40:33.862Z,85.3
2023-01-09T02:41:49.170Z,85.3
2023-01-09T02:43:05.439Z,85.4
2023-01-09T02:44:21.759Z,85.3
2023-01-09T02:45:38.053Z,85.1
2023-01-09T02:46:54.311Z,85.2
2023-01-09T02:48:10.647Z,85.2
2023-01-09T02:49:26.938Z,85.4
2023-01-09T02:50:43.221Z,85.3
2023-01-09T02:51:59.513Z,85.1
2023-01-09T02:53:15.779Z,85
2023-01-09T02:54:32.104Z,85.3
2023-01-09T02:55:48.399Z,85.4
2023-01-09T02:57:04.687Z,85.7
2023-01-09T02:58:20.004Z,85.7
2023-01-09T02:59:36.290Z,85.8
2023-01-09T03:00:52.584Z,86
2023-01-09T03:02:08.873Z,86.4
2023-01-09T03:03:25.171Z,86.6
2023-01-09T03:04:41.463Z,87.3
2023-01-09T03:05:57.744Z,87.5
2023-01-09T03:07:14.040Z,87.9
2023-01-09T03:08:30.319Z,88.5
2023-01-09T03:09:46.646Z,88.9
2023-01-09T03:11:02.944Z,89.7
2023-01-09T03:12:19.227Z,90.4
2023-01-09T03:13:35.517Z,91.1
2023-01-09T03:14:50.831Z,91.7
2023-01-09T03:16:07.110Z,91.9
2023-01-09T03:17:23.418Z,92.3
2023-01-09T03:18:39.698Z,92.8
2023-01-09T03:19:55.984Z,93.2
2023-01-09T03:21:12.297Z,93.5
2023-01-09T03:22:28.591Z,93.9
2023-01-09T03:23:44.878Z,94.3
2023-01-09T03:25:01.187Z,94.7
2023-01-09T03:26:17.475Z,94.9
2023-01-09T03:27:33.766Z,95.2
2023-01-09T03:28:50.049Z,95.5
2023-01-09T03:30:06.360Z,95.7
2023-01-09T03:31:21.680Z,95.8
2023-01-09T03:32:37.964Z,96.1
2023-01-09T03:33:54.258Z,96.2
2023-01-09T03:35:10.560Z,96.1
2023-01-09T03:36:26.837Z,96
2023-01-09T03:37:43.142Z,96.1
2023-01-09T03:38:59.429Z,96.2
2023-01-09T03:40:15.721Z,96.2
2023-01-09T03:41:32.012Z,96.2
2023-01-09T03:42:48.307Z,96.2
2023-01-09T03:44:04.599Z,96.4
2023-01-09T03:45:20.900Z,96.4
2023-01-09T03:46:37.194Z,96.5
2023-01-09T03:47:52.512Z,96.5
2023-01-09T03:49:08.766Z,96.6
2023-01-09T03:50:25.082Z,96.7
2023-01-09T03:51:41.379Z,96.9
2023-01-09T03:52:57.662Z,96.9
2023-01-09T03:54:13.979Z,96.7
2023-01-09T03:55:30.257Z,96.6
2023-01-09T03:56:46.556Z,96.5
2023-01-09T03:58:02.848Z,96.5
2023-01-09T03:59:19.141Z,96.6
2023-01-09T04:00:35.411Z,96.6
2023-01-09T04:01:51.730Z,96.7
2023-01-09T04:03:07.997Z,96.6
2023-01-09T04:04:23.314Z,96.7
2023-01-09T04:05:39.627Z,96.7
2023-01-09T04:06:55.910Z,96.7
2023-01-09T04:08:12.189Z,96.7
2023-01-09T04:09:28.506Z,97
2023-01-09T04:10:44.813Z,96.9
2023-01-09T04:12:01.103Z,96.7
2023-01-09T04:13:17.365Z,96.7
2023-01-09T04:14:33.665Z,96.6
2023-01-09T04:15:49.976Z,96.6
2023-01-09T04:17:06.285Z,96.6
2023-01-09T04:18:22.564Z,96.7
2023-01-09T04:19:38.855Z,96.8
2023-01-09T04:20:54.176Z,96.8
2023-01-09T04:22:10.469Z,96.9
2023-01-09T04:23:26.731Z,97
2023-01-09T04:24:43.050Z,97
2023-01-09T04:25:59.359Z,97
2023-01-09T04:27:15.641Z,97.1
2023-01-09T04:28:31.910Z,97.1
2023-01-09T04:29:48.224Z,96.9
2023-01-09T04:31:04.520Z,96.8
2023-01-09T04:32:20.789Z,96.8
2023-01-09T04:33:37.103Z,97
2023-01-09T04:34:53.411Z,97
2023-01-09T04:36:09.702Z,97
2023-01-09T04:37:24.978Z,97
2023-01-09T04:38:41.274Z,97
2023-01-09T04:39:57.576Z,97
2023-01-09T04:41:13.893Z,97
2023-01-09T04:42:30.160Z,97.1
2023-01-09T04:43:46.475Z,97.1
2023-01-09T04:45:02.771Z,97.4
2023-01-09T04:46:19.061Z,97.3
2023-01-09T04:47:35.370Z,97.2
2023-01-09T04:48:51.623Z,97
2023-01-09T04:50:07.947Z,97
2023-01-09T04:51:24.215Z,96.8
2023-01-09T04:52:40.543Z,96.8
2023-01-09T04:53:55.856Z,96.9
2023-01-09T04:55:12.143Z,97.1
2023-01-09T04:56:28.405Z,97.1
2023-01-09T04:57:44.709Z,97.1
2023-01-09T04:59:00.990Z,97
2023-01-09T05:00:17.289Z,96.9
2023-01-09T05:01:33.593Z,96.9
2023-01-09T05:02:49.895Z,97
2023-01-09T05:04:06.202Z,96.7
2023-01-09T05:05:22.460Z,96.4
2023-01-09T05:06:38.768Z,96.3
2023-01-09T05:07:55.060Z,96.2
2023-01-09T05:09:11.350Z,96.2
2023-01-09T05:10:26.693Z,96.1
2023-01-09T05:11:42.948Z,96.1
2023-01-09T05:12:59.250Z,96.1
2023-01-09T05:14:15.546Z,96.1
2023-01-09T05:15:31.861Z,96.1
2023-01-09T05:16:48.122Z,96.1
2023-01-09T05:18:03.444Z,96
2023-01-09T05:19:19.733Z,95.8
2023-01-09T05:20:36.026Z,95.8
2023-01-09T05:21:52.326Z,95.8
2023-01-09T05:23:08.640Z,95.8
2023-01-09T05:24:24.940Z,95.8
2023-01-09T05:25:41.231Z,95.8
2023-01-09T05:26:57.502Z,95.8
2023-01-09T05:28:13.801Z,95.7
2023-01-09T05:29:30.082Z,95.4
2023-01-09T05:30:46.397Z,95.3
2023-01-09T05:32:02.700Z,95.3
2023-01-09T05:33:18.978Z,95.2
2023-01-09T05:34:34.280Z,95.2
2023-01-09T05:35:50.589Z,95.3
2023-01-09T05:37:06.861Z,95.4
2023-01-09T05:38:23.166Z,95.4
2023-01-09T05:39:39.454Z,95.6
2023-01-09T05:40:55.778Z,95.5
2023-01-09T05:42:12.033Z,95.1
2023-01-09T05:43:28.336Z,95
2023-01-09T05:44:44.645Z,94.9
2023-01-09T05:46:00.941Z,94.8
2023-01-09T05:47:17.211Z,94.7
2023-01-09T05:48:33.541Z,94.7
2023-01-09T05:49:49.820Z,94.3
2023-01-09T05:51:05.144Z,94
2023-01-09T05:52:21.405Z,94.1
2023-01-09T05:53:37.703Z,94.2
2023-01-09T05:54:54.010Z,94.1
2023-01-09T05:56:10.297Z,94.3
2023-01-09T05:57:26.612Z,94.4
2023-01-09T05:58:42.897Z,94
2023-01-09T05:59:59.166Z,93.5
2023-01-09T06:01:15.485Z,93.1
2023-01-09T06:02:31.775Z,93
2023-01-09T06:03:48.044Z,92.9
2023-01-09T06:05:04.344Z,92.5
2023-01-09T06:06:20.654Z,92.5
2023-01-09T06:07:35.966Z,92.7
2023-01-09T06:08:52.245Z,92.5
2023-01-09T06:10:08.572Z,92.4
2023-01-09T06:11:24.843Z,92.3
2023-01-09T06:12:41.140Z,92.3
2023-01-09T06:13:57.411Z,92.2
2023-01-09T06:15:13.744Z,92.1
2023-01-09T06:16:29.999Z,92.1
2023-01-09T06:17:46.310Z,91.5
2023-01-09T06:19:02.587Z,91.4
2023-01-09T06:20:18.913Z,91.3
2023-01-09T06:21:35.210Z,90.9
2023-01-09T06:22:51.495Z,91
2023-01-09T06:24:06.781Z,90.7
2023-01-09T06:25:23.076Z,90.7
2023-01-09T06:26:39.376Z,90.8
2023-01-09T06:27:55.677Z,91.1
2023-01-09T06:29:11.986Z,91.1
2023-01-09T06:30:28.279Z,90.8
2023-01-09T06:31:44.582Z,90.7
2023-01-09T06:33:00.847Z,90.6
2023-01-09T06:34:17.135Z,90.9
2023-01-09T06:35:33.462Z,90.6
2023-01-09T06:36:49.751Z,90.3
2023-01-09T06:38:05.988Z,90.5
2023-01-09T06:39:22.215Z,90.5
2023-01-09T06:40:37.466Z,90.5
2023-01-09T06:41:53.715Z,90.5
2023-01-09T06:43:09.955Z,90.6
2023-01-09T06:44:26.216Z,90.7
2023-01-09T06:45:42.453Z,90.7
2023-01-09T06:46:58.697Z,90.9
2023-01-09T06:48:14.928Z,90.7
2023-01-09T06:49:31.174Z,91.2
2023-01-09T06:50:47.383Z,90.9
2023-01-09T06:52:03.660Z,90.6
2023-01-09T06:53:19.889Z,90.7
2023-01-09T06:54:36.130Z,90.7
2023-01-09T06:55:52.378Z,90.5
2023-01-09T06:58:23.872Z,90.8
2023-01-09T06:59:40.081Z,90.8
2023-01-09T07:00:56.322Z,90.7
2023-01-09T07:02:12.591Z,90.9
2023-01-09T07:03:28.835Z,90.7
2023-01-09T07:04:45.060Z,90.8
2023-01-09T07:06:01.299Z,90.5
2023-01-09T07:07:17.542Z,90.3
2023-01-09T07:08:33.786Z,90.5
2023-01-09T07:09:50.000Z,90.3
2023-01-09T07:11:06.265Z,90.3
2023-01-09T07:12:22.490Z,90.2
2023-01-09T07:13:38.862Z,90.1
2023-01-09T07:14:55.076Z,90.1
2023-01-09T07:16:11.322Z,89.9
2023-01-09T07:17:27.561Z,90.1
2023-01-09T07:18:43.804Z,90
2023-01-09T07:20:00.039Z,90
2023-01-09T07:21:16.292Z,89.7
2023-01-09T07:22:32.520Z,89.5
2023-01-09T07:23:48.762Z,89.8
2023-01-09T07:25:05.022Z,89.5
2023-01-09T07:26:21.241Z,89.5
2023-01-09T07:27:37.490Z,89.4
2023-01-09T07:28:53.742Z,89.3
2023-01-09T07:30:08.975Z,89.3
2023-01-09T07:31:25.220Z,89.5
2023-01-09T07:32:41.490Z,89.5
2023-01-09T07:33:57.730Z,89.5
2023-01-09T07:35:13.934Z,89.7
2023-01-09T07:36:30.179Z,89.5
2023-01-09T07:37:46.448Z,89.6
2023-01-09T07:39:02.696Z,89.7
2023-01-09T07:40:18.917Z,89.7
2023-01-09T07:41:35.163Z,89.3
2023-01-09T07:42:51.403Z,89.1
2023-01-09T07:44:07.636Z,89.2
2023-01-09T07:45:23.876Z,89.3
2023-01-09T07:46:39.143Z,89.3
2023-01-09T07:47:55.347Z,89.5
2023-01-09T07:49:11.627Z,89.5
2023-01-09T07:50:27.828Z,89.6
2023-01-09T07:51:44.100Z,89.4
2023-01-09T07:53:00.349Z,89.6
2023-01-09T07:54:16.555Z,89.5
2023-01-09T07:55:32.788Z,89.6
2023-01-09T07:56:49.070Z,89.7
2023-01-09T07:58:05.302Z,89.4
2023-01-09T07:59:21.549Z,89
2023-01-09T08:00:37.779Z,88.8
2023-01-09T08:01:54.023Z,88.8
2023-01-09T08:03:09.271Z,88.8
2023-01-09T08:04:25.484Z,88.9
2023-01-09T08:05:41.750Z,89
2023-01-09T08:06:57.966Z,89
2023-01-09T08:08:14.206Z,89
2023-01-09T08:09:30.471Z,89
2023-01-09T08:10:46.705Z,88.9
2023-01-09T08:12:02.953Z,89
2023-01-09T08:13:19.169Z,88.9
2023-01-09T08:14:35.408Z,88.9
2023-01-09T08:15:51.643Z,89
2023-01-09T08:17:07.917Z,88.7
2023-01-09T08:18:24.133Z,88.6
2023-01-09T08:19:39.381Z,88.7
2023-01-09T08:20:55.626Z,88.8
2023-01-09T08:22:11.855Z,88.7
2023-01-09T08:23:28.132Z,88.6
2023-01-09T08:24:44.367Z,88.7
2023-01-09T08:26:00.584Z,88.6
2023-01-09T08:27:16.824Z,88.5
2023-01-09T08:28:33.088Z,88.5
2023-01-09T08:29:49.295Z,88.5
2023-01-09T08:31:05.563Z,88.5
2023-01-09T08:32:21.789Z,88.2
2023-01-09T08:33:38.042Z,88
2023-01-09T08:34:54.266Z,88.1
2023-01-09T08:36:09.543Z,87.9
2023-01-09T08:37:25.779Z,88
2023-01-09T08:38:41.994Z,87.5
2023-01-09T08:39:58.230Z,87.6
2023-01-09T08:41:14.496Z,87.3
2023-01-09T08:42:30.740Z,86.8
2023-01-09T08:43:46.950Z,86.8
2023-01-09T08:45:03.197Z,86.8
2023-01-09T08:46:19.431Z,87
2023-01-09T08:47:35.674Z,87
2023-01-09T08:48:51.907Z,86.6
2023-01-09T08:50:08.182Z,86.5
2023-01-09T08:51:24.421Z,87
2023-01-09T08:52:39.679Z,86.4
2023-01-09T08:53:55.923Z,85.9
2023-01-09T08:55:12.125Z,86
2023-01-09T08:56:28.368Z,86
2023-01-09T08:57:44.602Z,86.3
2023-01-09T08:59:00.846Z,86.3
2023-01-09T09:00:17.097Z,86.5
2023-01-09T09:01:33.354Z,86.6
2023-01-09T09:02:49.601Z,86.4
2023-01-09T09:04:05.804Z,85.8
2023-01-09T09:05:22.068Z,85.8
2023-01-09T09:06:38.296Z,86.3
2023-01-09T09:07:54.555Z,85.8
2023-01-09T09:09:09.778Z,86.2
2023-01-09T09:10:26.021Z,85.8
2023-01-09T09:11:42.279Z,86
2023-01-09T09:12:58.530Z,86.4
2023-01-09T09:14:14.752Z,86.3
2023-01-09T09:15:31.013Z,86.4
2023-01-09T09:16:47.246Z,86.4
2023-01-09T09:18:03.490Z,86.5
2023-01-09T09:19:19.706Z,86.4
2023-01-09T09:20:35.951Z,86.4
2023-01-09T09:21:52.184Z,86
2023-01-09T09:23:08.419Z,86
2023-01-09T09:24:24.696Z,86
2023-01-09T09:25:39.918Z,86
2023-01-09T09:26:56.150Z,85.5
2023-01-09T09:28:12.421Z,85.4
2023-01-09T09:29:28.631Z,85.2
2023-01-09T09:30:44.906Z,85.1
2023-01-09T09:32:01.143Z,84.9
2023-01-09T09:33:16.395Z,84.7
2023-01-09T09:34:32.640Z,84.6
2023-01-09T09:35:48.875Z,84.3
2023-01-09T09:37:05.102Z,84.5
2023-01-09T09:38:21.353Z,84.1
2023-01-09T09:39:37.597Z,84.1
2023-01-09T09:40:53.846Z,83.6
2023-01-09T09:42:10.092Z,83.6
2023-01-09T09:43:26.292Z,83.5
2023-01-09T09:44:42.563Z,83.3
2023-01-09T09:45:58.797Z,83.4
2023-01-09T09:47:15.006Z,83.2
2023-01-09T09:48:31.255Z,83.4
2023-01-09T09:49:47.513Z,83
2023-01-09T09:51:02.772Z,82.9
2023-01-09T09:52:19.006Z,82.9
2023-01-09T09:53:35.256Z,83.1
2023-01-09T09:54:51.488Z,83.3
2023-01-09T09:56:07.705Z,83.2
2023-01-09T09:57:23.948Z,83.1
2023-01-09T09:58:40.216Z,83.5
2023-01-09T09:59:56.416Z,83.3
2023-01-09T10:01:12.660Z,82.9
2023-01-09T10:02:28.931Z,83
2023-01-09T10:03:45.160Z,82.8
2023-01-09T10:05:01.407Z,83.2
2023-01-09T10:06:17.641Z,83.1
2023-01-09T10:07:32.875Z,83
2023-01-09T10:08:49.119Z,83.1
2023-01-09T10:10:05.351Z,83.2
2023-01-09T10:11:21.615Z,83
2023-01-09T10:12:37.836Z,82.6
2023-01-09T10:13:54.073Z,82.4
2023-01-09T10:15:10.313Z,82.7
2023-01-09T10:16:26.553Z,82.4
2023-01-09T10:17:42.812Z,81.8
2023-01-09T10:18:59.071Z,80.9
2023-01-09T10:20:15.303Z,80.6
2023-01-09T10:21:31.546Z,80.1
2023-01-09T10:22:47.788Z,80.8
2023-01-09T10:24:03.026Z,80.8
2023-01-09T10:25:19.282Z,79.6
2023-01-09T10:26:35.506Z,79.2
2023-01-09T10:27:51.758Z,79.1
2023-01-09T10:29:07.974Z,79.4
2023-01-09T10:30:24.199Z,79.5
2023-01-09T10:31:40.466Z,79.5
2023-01-09T10:32:56.702Z,79
2023-01-09T10:34:12.954Z,77.4
2023-01-09T10:35:29.159Z,77.1
2023-01-09T10:36:45.431Z,76.3
2023-01-09T10:38:01.635Z,75.8
2023-01-09T10:39:17.915Z,75.3
2023-01-09T10:40:33.160Z,73.9
2023-01-09T10:41:49.411Z,72.9
2023-01-09T10:43:05.613Z,71.7
2023-01-09T10:44:21.849Z,70.9
2023-01-09T10:45:38.117Z,71.1
2023-01-09T10:46:54.370Z,71.4
2023-01-09T10:48:10.570Z,72.1
2023-01-09T10:49:26.836Z,72.5
2023-01-09T10:50:43.045Z,72.9
2023-01-09T10:51:59.286Z,73.5
2023-01-09T10:53:15.537Z,73.6
2023-01-09T10:54:31.792Z,73.5
2023-01-09T10:55:48.029Z,73.5
2023-01-09T10:57:03.285Z,73.1
2023-01-09T10:58:19.503Z,72.1
2023-01-09T10:59:35.773Z,72.1
2023-01-09T11:00:52.005Z,70.4
2023-01-09T11:02:08.244Z,70.2
2023-01-09T11:03:24.493Z,70.2
2023-01-09T11:04:40.704Z,69.3
2023-01-09T11:05:56.965Z,69
2023-01-09T11:07:13.177Z,70.4
2023-01-09T11:08:29.450Z,70.4
2023-01-09T11:09:45.000Z,70.2
2023-01-09T11:11:01.922Z,70.3
2023-01-09T11:12:18.176Z,70
2023-01-09T11:13:33.404Z,69.9
2023-01-09T11:14:49.626Z,69.5
2023-01-09T11:16:05.879Z,69.5
2023-01-09T11:17:22.125Z,69.4
2023-01-09T11:18:38.352Z,69.4
2023-01-09T11:19:54.598Z,69.4
2023-01-09T11:21:10.863Z,68.1
2023-01-09T11:22:27.105Z,68.3
2023-01-09T11:23:43.345Z,68.2
2023-01-09T11:24:59.575Z,68.9
2023-01-09T11:26:15.821Z,67.4
2023-01-09T11:27:32.051Z,67.4
2023-01-09T11:28:48.267Z,67.5
2023-01-09T11:30:03.548Z,67.8
2023-01-09T11:31:19.768Z,67.7
2023-01-09T11:32:36.037Z,68
2023-01-09T11:33:52.275Z,68.6
2023-01-09T11:35:08.515Z,68.5
2023-01-09T11:36:24.748Z,68.5
2023-01-09T11:37:40.981Z,68.8
2023-01-09T11:38:57.191Z,67.8
2023-01-09T11:40:13.465Z,67.9
2023-01-09T11:41:29.705Z,68.3
2023-01-09T11:42:45.919Z,68.8
2023-01-09T11:44:02.182Z,68.6
2023-01-09T11:45:18.430Z,68.6
2023-01-09T11:46:33.656Z,69
2023-01-09T11:47:49.923Z,68.5
2023-01-09T11:49:06.161Z,68.4
2023-01-09T11:50:22.367Z,68.9
2023-01-09T11:51:38.629Z,69.2
2023-01-09T11:52:54.858Z,69.6
2023-01-09T11:54:11.114Z,69.8
2023-01-09T11:55:27.322Z,69.9
2023-01-09T11:56:43.561Z,69.8
2023-01-09T11:57:59.827Z,70.4
2023-01-09T11:59:16.047Z,69.9
2023-01-09T12:00:32.312Z,70.1
2023-01-09T12:01:48.522Z,70
2023-01-09T12:03:03.808Z,70
2023-01-09T12:04:20.050Z,69.9
2023-01-09T12:05:36.260Z,69.8
2023-01-09T12:06:52.506Z,70.4
2023-01-09T12:08:08.764Z,70
2023-01-09T12:09:25.013Z,70
2023-01-09T12:10:41.250Z,70.1
2023-01-09T12:11:57.456Z,70.4
2023-01-09T12:13:13.723Z,70.1
2023-01-09T12:14:29.969Z,70.4
2023-01-09T12:15:46.205Z,70.5
2023-01-09T12:17:02.410Z,70.5
2023-01-09T12:18:18.653Z,70
2023-01-09T12:19:33.940Z,70
2023-01-09T12:20:50.152Z,70.3
2023-01-09T12:22:06.385Z,69.9
2023-01-09T12:23:22.633Z,69.1
2023-01-09T12:24:38.894Z,68.9
2023-01-09T12:25:55.150Z,68.9
2023-01-09T12:27:11.348Z,69.4
2023-01-09T12:28:27.612Z,70
2023-01-09T12:29:43.849Z,69.1
2023-01-09T12:31:00.103Z,69.2
2023-01-09T12:32:16.300Z,69.3
2023-01-09T12:33:32.546Z,69.4
2023-01-09T12:34:48.818Z,69
2023-01-09T12:36:04.060Z,68.9
2023-01-09T12:37:20.307Z,68.9
2023-01-09T12:38:36.540Z,69
2023-01-09T12:39:52.781Z,69.3
2023-01-09T12:41:09.039Z,69.8
2023-01-09T12:42:25.269Z,69.9
2023-01-09T12:43:41.509Z,69.8
2023-01-09T12:44:57.713Z,69.3
2023-01-09T12:46:13.951Z,69.3
2023-01-09T12:47:30.233Z,69.7
2023-01-09T12:48:46.466Z,70.2
2023-01-09T12:50:02.702Z,70.2
2023-01-09T12:51:18.948Z,70.3
2023-01-09T12:52:34.168Z,68.8
2023-01-09T12:53:50.412Z,68.9
2023-01-09T12:55:06.668Z,69.2
2023-01-09T12:56:22.880Z,69.2
2023-01-09T12:57:39.135Z,69
2023-01-09T12:58:55.382Z,68
2023-01-09T13:00:11.607Z,68.5
2023-01-09T13:01:27.843Z,69
2023-01-09T13:02:44.087Z,69
2023-01-09T13:04:00.335Z,69.4
2023-01-09T13:05:16.580Z,70.1
2023-01-09T13:06:32.813Z,70.4
2023-01-09T13:07:49.041Z,70.5
2023-01-09T13:09:04.295Z,70.3
2023-01-09T13:10:20.546Z,70.9
2023-01-09T13:11:36.781Z,71.1
2023-01-09T13:12:53.025Z,71.1
2023-01-09T13:14:09.270Z,71.4
2023-01-09T13:15:25.495Z,71.3
2023-01-09T13:16:41.733Z,71.1
2023-01-09T13:17:57.973Z,70.9
2023-01-09T13:19:14.222Z,71
2023-01-09T13:20:30.452Z,70.8
2023-01-09T13:21:46.705Z,70.7
2023-01-09T13:23:02.925Z,70.9
2023-01-09T13:24:19.168Z,70.4
2023-01-09T13:25:34.431Z,70.8
2023-01-09T13:26:50.682Z,70.8
2023-01-09T13:28:06.909Z,70.4
2023-01-09T13:29:23.151Z,70.5
2023-01-09T13:30:39.382Z,70.7
2023-01-09T13:31:55.618Z,70.4
2023-01-09T13:33:11.860Z,71
2023-01-09T13:34:28.101Z,70.8
2023-01-09T13:35:44.339Z,71.4
2023-01-09T13:37:00.574Z,71.7
2023-01-09T13:38:16.837Z,72.5
2023-01-09T13:39:33.061Z,73.4
2023-01-09T13:40:49.302Z,73.7
2023-01-09T13:42:04.559Z,73.8
2023-01-09T13:43:20.794Z,73.8
2023-01-09T13:44:37.000Z,73.6
2023-01-09T13:45:53.282Z,73.2
2023-01-09T13:47:09.523Z,73.5
2023-01-09T13:48:24.776Z,73.2
2023-01-09T13:49:41.015Z,73
2023-01-09T13:50:57.256Z,73.2
2023-01-09T13:52:13.510Z,73
2023-01-09T13:53:29.738Z,72.8
2023-01-09T13:54:45.979Z,73
2023-01-09T13:56:02.220Z,73.3
2023-01-09T13:57:18.449Z,73.3
2023-01-09T13:58:34.703Z,73.5
2023-01-09T13:59:50.932Z,73.6
2023-01-09T14:01:07.171Z,74
2023-01-09T14:02:23.420Z,74.2
2023-01-09T14:03:39.649Z,74.3
2023-01-09T14:04:54.921Z,74.2
2023-01-09T14:06:11.140Z,74.5
2023-01-09T14:07:27.387Z,74.8
2023-01-09T14:08:43.636Z,74.6
2023-01-09T14:09:59.874Z,74.3
2023-01-09T14:11:16.111Z,74.6
2023-01-09T14:12:32.358Z,74.9
2023-01-09T14:13:48.596Z,73.2
2023-01-09T14:15:04.824Z,73.5
2023-01-09T14:16:21.070Z,73.3
2023-01-09T14:17:37.297Z,72.3
2023-01-09T14:18:53.544Z,72.1
2023-01-09T14:20:09.787Z,72.3
2023-01-09T14:21:25.029Z,72.3
2023-01-09T14:22:41.277Z,72.5
2023-01-09T14:23:57.523Z,72.5
2023-01-09T14:25:13.755Z,72.5
2023-01-09T14:26:30.006Z,72.7
2023-01-09T14:27:46.246Z,73
2023-01-09T14:29:02.469Z,73
2023-01-09T14:30:18.727Z,72.8
2023-01-09T14:31:34.967Z,73
2023-01-09T14:32:51.205Z,72.8
2023-01-09T14:34:07.431Z,72.7
2023-01-09T14:35:23.673Z,73
2023-01-09T14:36:39.926Z,73
2023-01-09T14:37:55.175Z,73.3
2023-01-09T14:39:11.423Z,73.2
2023-01-09T14:40:27.648Z,73.5
2023-01-09T14:41:43.880Z,73.5
2023-01-09T14:43:00.129Z,73.9
2023-01-09T14:44:16.371Z,74
2023-01-09T14:45:32.615Z,74.3
2023-01-09T14:46:48.836Z,74.3
2023-01-09T14:48:05.092Z,74.6
2023-01-09T14:49:21.330Z,74.8
2023-01-09T14:50:37.556Z,74.9
2023-01-09T14:51:53.820Z,75
2023-01-09T14:53:10.054Z,75.2
2023-01-09T14:54:25.315Z,75.4
2023-01-09T14:55:41.546Z,75.7
2023-01-09T14:56:57.783Z,75.9
2023-01-09T14:58:14.014Z,76.1
2023-01-09T14:59:30.271Z,76.7
2023-01-09T15:00:46.494Z,76.8
2023-01-09T15:02:02.740Z,76.8
2023-01-09T15:03:18.970Z,77.1
2023-01-09T15:04:35.230Z,77.2
2023-01-09T15:05:51.452Z,77.3
2023-01-09T15:07:07.706Z,77.6
2023-01-09T15:08:23.940Z,77.7
2023-01-09T15:09:40.166Z,78
2023-01-09T15:10:55.434Z,78.2
2023-01-09T15:12:11.684Z,78.2
2023-01-09T15:13:27.915Z,78.4
2023-01-09T15:14:44.150Z,78.5
2023-01-09T15:16:00.388Z,78.5
2023-01-09T15:17:16.630Z,79
2023-01-09T15:18:32.865Z,79.2
2023-01-09T15:19:49.111Z,79.3
2023-01-09T15:21:05.349Z,79.4
2023-01-09T15:22:21.593Z,79.2
2023-01-09T15:23:37.832Z,79.5
2023-01-09T15:24:54.059Z,79.7
2023-01-09T15:26:10.312Z,80
2023-01-09T15:27:25.565Z,80.1
2023-01-09T15:28:41.803Z,80.5
2023-01-09T15:29:58.042Z,80.6
2023-01-09T15:31:14.279Z,81
2023-01-09T15:32:30.514Z,81.2
2023-01-09T15:33:46.767Z,81.5
2023-01-09T15:35:03.001Z,81.6
2023-01-09T15:36:19.250Z,81.8
2023-01-09T15:37:35.477Z,81.9
2023-01-09T15:38:51.721Z,82.3
2023-01-09T15:40:07.953Z,82.4
2023-01-09T15:41:24.197Z,82.7
2023-01-09T15:42:40.448Z,83
2023-01-09T15:43:55.696Z,83.1
2023-01-09T15:45:11.935Z,83.4
2023-01-09T15:46:28.178Z,83.4
2023-01-09T15:47:44.416Z,83.6
2023-01-09T15:49:00.658Z,83.7
2023-01-09T15:50:16.892Z,83.8
2023-01-09T15:51:33.152Z,83.8
2023-01-09T15:52:49.377Z,83.8
2023-01-09T15:54:05.628Z,83.9
2023-01-09T15:55:21.855Z,83.8
2023-01-09T15:56:38.090Z,83.9
2023-01-09T15:57:54.324Z,84.1
2023-01-09T15:59:10.572Z,84.5
2023-01-09T16:00:25.836Z,84.5
2023-01-09T16:01:42.115Z,84.7
2023-01-09T16:02:58.425Z,84.7
2023-01-09T16:04:14.706Z,85.2
2023-01-09T16:05:31.003Z,85.3
2023-01-09T16:06:47.299Z,85.4
2023-01-09T16:08:03.593Z,85.5
2023-01-09T16:09:19.892Z,85.7
2023-01-09T16:10:36.188Z,85.8
2023-01-09T16:11:52.484Z,85.9
2023-01-09T16:13:08.775Z,85.8
2023-01-09T16:14:25.063Z,85.8
2023-01-09T16:15:41.365Z,85.7
2023-01-09T16:16:56.670Z,85.7
2023-01-09T16:18:12.948Z,85.6
2023-01-09T16:19:29.269Z,85.6
2023-01-09T16:20:45.552Z,85.6
2023-01-09T16:22:01.848Z,85.6
2023-01-09T16:23:18.126Z,85.6
2023-01-09T16:24:34.425Z,85.6
2023-01-09T16:25:50.727Z,85.7
2023-01-09T16:27:07.009Z,85.6
2023-01-09T16:28:23.317Z,85.7
2023-01-09T16:29:39.602Z,85.8
2023-01-09T16:30:55.891Z,85.6
2023-01-09T16:32:12.000Z,85.4
2023-01-09T16:33:27.511Z,85.3
2023-01-09T16:34:43.790Z,85.1
2023-01-09T16:36:00.089Z,85.2
2023-01-09T16:37:16.398Z,85
2023-01-09T16:38:32.692Z,84.9
2023-01-09T16:39:48.971Z,85
2023-01-09T16:41:05.270Z,85
2023-01-09T16:42:21.561Z,84.9
2023-01-09T16:43:37.850Z,85
2023-01-09T16:44:54.142Z,85
2023-01-09T16:46:10.445Z,85.2
2023-01-09T16:47:26.728Z,85.2
2023-01-09T16:48:43.022Z,85.1
2023-01-09T16:49:58.342Z,85.1
2023-01-09T16:51:14.625Z,85.2
2023-01-09T16:52:30.930Z,85.3
2023-01-09T16:53:47.231Z,85.4
2023-01-09T16:55:03.513Z,85.6
2023-01-09T16:56:19.799Z,85.7
2023-01-09T16:57:36.093Z,85.7
2023-01-09T16:58:52.389Z,85.8
2023-01-09T17:00:08.685Z,86.2
2023-01-09T17:01:24.975Z,85.8
2023-01-09T17:02:41.280Z,85.8
2023-01-09T17:03:57.557Z,85.9